Terminal Aerodrome Forecast
Issued by NWS Wilmington, NC

Home | Current Version | Previous Version | Text Only | Print | Product List | Glossary On
Versions: 1 2 3 4 5 6 7 8 9 10 11 12 13 14 15 16
000
FTUS42 KILM 300533
TAFLBT
TAF
KLBT 300533Z 3006/3106 VRB03KT P6SM SCT120
     FM301000 00000KT 4SM BR SCT001
     FM301500 22003KT P6SM SCT250
     FM301800 09005KT P6SM BKN250
      TEMPO 3020/3024 P6SM -TSRA BKN050CB
     FM310000 15005KT P6SM BKN250
      TEMPO 3100/3104 P6SM -TSRA BKN050CB=

USA.gov is the U.S. government's official web portal to all federal, state and local government web resources and services.